createdAt,value
2019-06-20T00:00:38.556Z,0.00
2019-06-20T00:01:38.551Z,0.00
2019-06-20T00:02:38.525Z,0.00
2019-06-20T00:03:38.536Z,0.00
2019-06-20T00:04:38.517Z,0.00
2019-06-20T00:05:38.505Z,0.00
2019-06-20T00:06:38.549Z,0.00
2019-06-20T00:07:38.488Z,0.00
2019-06-20T00:08:38.478Z,0.00
2019-06-20T00:09:38.456Z,0.00
2019-06-20T00:10:38.456Z,0.00
2019-06-20T00:11:38.425Z,0.00
2019-06-20T00:12:38.417Z,0.00
2019-06-20T00:13:38.447Z,0.00
2019-06-20T00:14:38.407Z,0.00
2019-06-20T00:15:38.396Z,0.00
2019-06-20T00:16:38.405Z,0.00
2019-06-20T00:17:48.671Z,0.00
2019-06-20T00:18:38.374Z,0.00
2019-06-20T00:19:38.362Z,0.00
2019-06-20T00:20:38.336Z,0.00
2019-06-20T00:21:38.333Z,0.00
2019-06-20T00:22:38.312Z,0.00
2019-06-20T00:23:38.303Z,0.00
2019-06-20T00:24:38.302Z,0.00
2019-06-20T00:25:38.286Z,0.00
2019-06-20T00:26:38.264Z,0.00
2019-06-20T00:27:38.271Z,0.00
2019-06-20T00:28:38.252Z,0.00
2019-06-20T00:29:38.254Z,0.00
2019-06-20T00:30:38.245Z,0.00
2019-06-20T00:31:38.307Z,0.00
2019-06-20T00:32:38.239Z,0.00
2019-06-20T00:33:38.190Z,0.00
2019-06-20T00:34:38.186Z,0.00
2019-06-20T00:35:38.202Z,0.00
2019-06-20T00:36:38.174Z,0.00
2019-06-20T00:37:38.163Z,0.00
2019-06-20T00:38:38.161Z,0.00
2019-06-20T00:39:38.140Z,5.62
2019-06-20T00:40:38.129Z,5.62
2019-06-20T00:41:38.111Z,5.62
2019-06-20T00:42:38.102Z,5.62
2019-06-20T00:43:38.119Z,5.62
2019-06-20T00:44:38.105Z,5.62
2019-06-20T00:45:38.095Z,5.62
2019-06-20T00:46:38.086Z,5.62
2019-06-20T00:47:38.060Z,5.62
2019-06-20T00:48:48.514Z,5.62
2019-06-20T00:49:38.037Z,5.62
2019-06-20T00:50:38.045Z,5.62
2019-06-20T00:51:38.008Z,5.62
2019-06-20T00:52:37.992Z,5.62
2019-06-20T00:53:37.985Z,5.62
2019-06-20T00:54:38.915Z,5.62
2019-06-20T00:55:37.967Z,5.62
2019-06-20T00:56:37.967Z,5.62
2019-06-20T00:57:37.944Z,5.62
2019-06-20T00:58:37.924Z,5.62
2019-06-20T00:59:37.932Z,5.62
2019-06-20T01:00:37.914Z,5.62
2019-06-20T01:01:37.904Z,5.62
2019-06-20T01:02:37.885Z,5.62
2019-06-20T01:03:37.925Z,11.25
2019-06-20T01:04:37.904Z,11.25
2019-06-20T01:05:37.867Z,11.25
2019-06-20T01:06:37.863Z,11.25
2019-06-20T01:07:37.844Z,11.25
2019-06-20T01:08:37.838Z,11.25
2019-06-20T01:09:37.812Z,11.25
2019-06-20T01:10:37.844Z,11.25
2019-06-20T01:11:37.832Z,11.25
2019-06-20T01:12:37.796Z,11.25
2019-06-20T01:13:37.783Z,11.25
2019-06-20T01:14:37.773Z,11.25
2019-06-20T01:15:37.764Z,11.25
2019-06-20T01:16:37.775Z,11.25
2019-06-20T01:17:37.744Z,11.25
2019-06-20T01:18:37.731Z,16.88
2019-06-20T01:19:47.586Z,16.88
2019-06-20T01:20:37.695Z,16.88
2019-06-20T01:21:37.698Z,16.88
2019-06-20T01:22:37.675Z,16.88
2019-06-20T01:23:37.663Z,16.88
2019-06-20T01:24:37.654Z,16.88
2019-06-20T01:25:37.688Z,16.88
2019-06-20T01:26:37.636Z,16.88
2019-06-20T01:27:37.625Z,16.88
2019-06-20T01:28:37.603Z,16.88
2019-06-20T01:29:37.616Z,16.88
2019-06-20T01:30:37.612Z,22.50
2019-06-20T01:31:37.592Z,22.50
2019-06-20T01:32:37.579Z,22.50
2019-06-20T01:33:37.564Z,22.50
2019-06-20T01:34:37.553Z,22.50
2019-06-20T01:35:37.546Z,22.50
2019-06-20T01:36:37.554Z,22.50
2019-06-20T01:37:37.561Z,22.50
2019-06-20T01:38:37.515Z,22.50
2019-06-20T01:39:37.499Z,28.12
2019-06-20T01:40:37.504Z,28.12
2019-06-20T01:41:37.509Z,28.12
2019-06-20T01:42:37.470Z,28.12
2019-06-20T01:43:50.243Z,28.12
2019-06-20T01:44:38.440Z,28.12
2019-06-20T01:45:37.435Z,28.12
2019-06-20T01:46:37.425Z,28.12
2019-06-20T01:47:37.435Z,28.12
2019-06-20T01:48:37.424Z,28.12
2019-06-20T01:49:37.405Z,28.12
2019-06-20T01:50:48.045Z,28.12
2019-06-20T01:51:37.364Z,28.12
2019-06-20T01:52:37.396Z,28.12
2019-06-20T01:53:37.357Z,28.12
2019-06-20T01:54:37.338Z,28.12
2019-06-20T01:55:37.324Z,28.12
2019-06-20T01:56:37.318Z,33.75
2019-06-20T01:57:37.326Z,33.75
2019-06-20T01:58:37.316Z,33.75
2019-06-20T01:59:37.283Z,33.75
2019-06-20T02:00:37.300Z,33.75
2019-06-20T02:01:37.267Z,33.75
2019-06-20T02:02:37.266Z,33.75
2019-06-20T02:03:37.265Z,33.75
2019-06-20T02:04:37.288Z,33.75
2019-06-20T02:05:37.247Z,33.75
2019-06-20T02:06:37.213Z,33.75
2019-06-20T02:07:37.208Z,33.75
2019-06-20T02:08:37.203Z,33.75
2019-06-20T02:09:37.195Z,39.38
2019-06-20T02:10:37.187Z,39.38
2019-06-20T02:11:37.162Z,39.38
2019-06-20T02:12:37.145Z,39.38
2019-06-20T02:13:37.147Z,39.38
2019-06-20T02:14:37.173Z,39.38
2019-06-20T02:15:37.150Z,39.38
2019-06-20T02:16:37.102Z,39.38
2019-06-20T02:17:37.087Z,39.38
2019-06-20T02:18:37.075Z,39.38
2019-06-20T02:19:37.099Z,39.38
2019-06-20T02:20:37.084Z,39.38
2019-06-20T02:21:47.197Z,39.38
2019-06-20T02:22:37.035Z,39.38
2019-06-20T02:23:37.025Z,39.38
2019-06-20T02:24:37.016Z,39.38
2019-06-20T02:25:37.047Z,45.00
2019-06-20T02:26:37.007Z,45.00
2019-06-20T02:27:37.001Z,45.00
2019-06-20T02:28:36.988Z,45.00
2019-06-20T02:29:36.966Z,45.00
2019-06-20T02:30:36.968Z,45.00
2019-06-20T02:31:36.950Z,45.00
2019-06-20T02:32:36.935Z,45.00
2019-06-20T02:33:36.949Z,50.62
2019-06-20T02:34:36.923Z,50.62
2019-06-20T02:35:36.908Z,50.62
2019-06-20T02:36:36.910Z,50.62
2019-06-20T02:37:36.891Z,50.62
2019-06-20T02:38:36.880Z,50.62
2019-06-20T02:39:36.855Z,50.62
2019-06-20T02:40:36.845Z,50.62
2019-06-20T02:41:36.855Z,50.62
2019-06-20T02:42:36.823Z,56.25
2019-06-20T02:43:36.856Z,56.25
2019-06-20T02:44:36.815Z,56.25
2019-06-20T02:45:36.797Z,56.25
2019-06-20T02:46:36.787Z,56.25
2019-06-20T02:47:36.810Z,56.25
2019-06-20T02:48:36.777Z,56.25
2019-06-20T02:49:36.778Z,56.25
2019-06-20T02:50:36.745Z,56.25
2019-06-20T02:51:36.739Z,56.25
2019-06-20T02:52:47.577Z,61.88
2019-06-20T02:53:36.705Z,61.88
2019-06-20T02:54:36.706Z,61.88
2019-06-20T02:55:36.685Z,61.88
2019-06-20T02:56:36.676Z,61.88
2019-06-20T02:57:36.677Z,61.88
2019-06-20T02:58:36.689Z,61.88
2019-06-20T02:59:36.668Z,61.88
2019-06-20T03:00:36.643Z,56.25
2019-06-20T03:01:36.638Z,56.25
2019-06-20T03:02:36.627Z,56.25
2019-06-20T03:03:36.622Z,56.25
2019-06-20T03:04:36.607Z,61.88
2019-06-20T03:05:36.589Z,56.25
2019-06-20T03:06:36.614Z,61.88
2019-06-20T03:07:36.579Z,61.88
2019-06-20T03:08:36.555Z,61.88
2019-06-20T03:09:36.554Z,56.25
2019-06-20T03:10:36.544Z,61.88
2019-06-20T03:11:36.523Z,67.50
2019-06-20T03:12:36.518Z,67.50
2019-06-20T03:13:36.503Z,67.50
2019-06-20T03:14:45.497Z,67.50
2019-06-20T03:15:37.484Z,67.50
2019-06-20T03:16:36.486Z,67.50
2019-06-20T03:17:36.455Z,67.50
2019-06-20T03:18:36.444Z,67.50
2019-06-20T03:19:36.435Z,67.50
2019-06-20T03:20:36.460Z,67.50
2019-06-20T03:21:36.411Z,67.50
2019-06-20T03:22:36.414Z,67.50
2019-06-20T03:23:47.168Z,73.12
2019-06-20T03:24:36.388Z,73.12
2019-06-20T03:25:36.370Z,73.12
2019-06-20T03:26:36.399Z,73.12
2019-06-20T03:27:36.353Z,73.12
2019-06-20T03:28:36.360Z,73.12
2019-06-20T03:29:36.348Z,73.12
2019-06-20T03:30:36.328Z,73.12
2019-06-20T03:31:36.317Z,73.12
2019-06-20T03:32:36.301Z,73.12
2019-06-20T03:33:36.288Z,73.12
2019-06-20T03:34:36.282Z,73.12
2019-06-20T03:35:36.269Z,73.12
2019-06-20T03:36:36.247Z,73.12
2019-06-20T03:37:36.299Z,73.12
2019-06-20T03:38:36.237Z,73.12
2019-06-20T03:39:36.253Z,73.12
2019-06-20T03:40:36.217Z,73.12
2019-06-20T03:41:36.202Z,73.12
2019-06-20T03:42:36.207Z,78.75
2019-06-20T03:43:36.181Z,78.75
2019-06-20T03:44:36.179Z,78.75
2019-06-20T03:45:36.158Z,78.75
2019-06-20T03:46:36.169Z,78.75
2019-06-20T03:47:36.139Z,84.38
2019-06-20T03:48:36.136Z,84.38
2019-06-20T03:49:36.162Z,84.38
2019-06-20T03:50:36.129Z,84.38
2019-06-20T03:51:36.110Z,90.00
2019-06-20T03:52:36.096Z,90.00
2019-06-20T03:53:36.079Z,95.62
2019-06-20T03:54:46.387Z,95.62
2019-06-20T03:55:36.056Z,84.38
2019-06-20T03:56:36.053Z,90.00
2019-06-20T03:57:36.033Z,90.00
2019-06-20T03:58:36.042Z,84.38
2019-06-20T03:59:36.013Z,78.75
2019-06-20T04:00:36.001Z,84.38
2019-06-20T04:01:36.003Z,84.38
2019-06-20T04:02:36.005Z,84.38
2019-06-20T04:03:35.961Z,84.38
2019-06-20T04:04:35.969Z,90.00
2019-06-20T04:05:35.955Z,90.00
2019-06-20T04:06:36.028Z,90.00
2019-06-20T04:07:35.949Z,84.38
2019-06-20T04:08:35.941Z,84.38
2019-06-20T04:09:35.924Z,84.38
2019-06-20T04:10:35.894Z,84.38
2019-06-20T04:11:35.890Z,84.38
2019-06-20T04:12:35.887Z,90.00
2019-06-20T04:13:35.889Z,90.00
2019-06-20T04:14:35.868Z,84.38
2019-06-20T04:15:35.855Z,78.75
2019-06-20T04:16:35.833Z,90.00
2019-06-20T04:17:35.822Z,90.00
2019-06-20T04:18:35.832Z,90.00
2019-06-20T04:19:35.803Z,95.62
2019-06-20T04:20:35.801Z,95.62
2019-06-20T04:21:35.782Z,95.62
2019-06-20T04:22:35.765Z,95.62
2019-06-20T04:23:35.805Z,95.62
2019-06-20T04:24:35.752Z,95.62
2019-06-20T04:25:46.111Z,95.62
2019-06-20T04:26:35.729Z,95.62
2019-06-20T04:27:35.739Z,95.62
2019-06-20T04:28:35.707Z,95.62
2019-06-20T04:29:36.048Z,101.25
2019-06-20T04:30:35.684Z,101.25
2019-06-20T04:31:35.719Z,101.25
2019-06-20T04:32:35.677Z,101.25
2019-06-20T04:33:35.648Z,101.25
2019-06-20T04:34:35.644Z,101.25
2019-06-20T04:35:35.737Z,101.25
2019-06-20T04:36:35.624Z,101.25
2019-06-20T04:37:35.658Z,95.62
2019-06-20T04:38:35.617Z,101.25
2019-06-20T04:39:35.597Z,90.00
2019-06-20T04:40:35.586Z,78.75
2019-06-20T04:41:35.580Z,101.25
2019-06-20T04:42:35.556Z,106.88
2019-06-20T04:43:35.555Z,106.88
2019-06-20T04:44:35.536Z,101.25
2019-06-20T04:45:35.897Z,101.25
2019-06-20T04:46:35.523Z,101.25
2019-06-20T04:47:35.523Z,101.25
2019-06-20T04:48:35.554Z,106.88
2019-06-20T04:49:35.527Z,106.88
2019-06-20T04:50:35.479Z,106.88
2019-06-20T04:51:35.465Z,106.88
2019-06-20T04:52:35.479Z,106.88
2019-06-20T04:53:35.446Z,106.88
2019-06-20T04:54:35.436Z,112.50
2019-06-20T04:55:35.559Z,112.50
2019-06-20T04:56:45.366Z,112.50
2019-06-20T04:57:35.409Z,112.50
2019-06-20T04:58:35.399Z,112.50
2019-06-20T04:59:35.375Z,112.50
2019-06-20T05:00:35.379Z,118.12
2019-06-20T05:01:35.357Z,118.12
2019-06-20T05:02:35.360Z,118.12
2019-06-20T05:03:35.425Z,118.12
2019-06-20T05:04:35.339Z,123.75
2019-06-20T05:05:35.309Z,123.75
2019-06-20T05:06:35.319Z,123.75
2019-06-20T05:07:35.298Z,123.75
2019-06-20T05:08:35.304Z,123.75
2019-06-20T05:09:35.289Z,129.38
2019-06-20T05:10:35.279Z,129.38
2019-06-20T05:11:35.245Z,129.38
2019-06-20T05:12:35.235Z,129.38
2019-06-20T05:13:35.228Z,129.38
2019-06-20T05:14:35.219Z,123.75
2019-06-20T05:15:48.140Z,118.12
2019-06-20T05:16:36.205Z,112.50
2019-06-20T05:17:35.204Z,112.50
2019-06-20T05:18:35.190Z,118.12
2019-06-20T05:19:35.171Z,106.88
2019-06-20T05:20:35.191Z,112.50
2019-06-20T05:21:35.156Z,112.50
2019-06-20T05:22:35.125Z,112.50
2019-06-20T05:23:35.136Z,112.50
2019-06-20T05:24:35.114Z,118.12
2019-06-20T05:25:35.106Z,118.12
2019-06-20T05:26:35.110Z,118.12
2019-06-20T05:27:45.693Z,118.12
2019-06-20T05:28:35.076Z,118.12
2019-06-20T05:29:35.065Z,118.12
2019-06-20T05:30:35.054Z,118.12
2019-06-20T05:31:35.073Z,118.12
2019-06-20T05:32:35.034Z,118.12
2019-06-20T05:33:35.033Z,118.12
2019-06-20T05:34:35.002Z,118.12
2019-06-20T05:35:35.013Z,118.12
2019-06-20T05:36:34.994Z,118.12
2019-06-20T05:37:34.993Z,118.12
2019-06-20T05:38:34.967Z,118.12
2019-06-20T05:39:34.966Z,118.12
2019-06-20T05:40:37.258Z,118.12
2019-06-20T05:41:34.960Z,118.12
2019-06-20T05:42:34.958Z,118.12
2019-06-20T05:43:34.935Z,118.12
2019-06-20T05:44:34.894Z,118.12
2019-06-20T05:45:34.885Z,118.12
2019-06-20T05:46:34.872Z,118.12
2019-06-20T05:47:34.864Z,118.12
2019-06-20T05:48:34.866Z,118.12
2019-06-20T05:49:34.862Z,118.12
2019-06-20T05:50:34.837Z,118.12
2019-06-20T05:51:34.846Z,118.12
2019-06-20T05:52:35.039Z,118.12
2019-06-20T05:53:34.854Z,118.12
2019-06-20T05:54:34.782Z,118.12
2019-06-20T05:55:34.797Z,118.12
2019-06-20T05:56:34.791Z,118.12
2019-06-20T05:57:34.763Z,118.12
2019-06-20T05:58:45.995Z,118.12
2019-06-20T05:59:34.764Z,123.75
2019-06-20T06:00:34.737Z,123.75
2019-06-20T06:01:34.726Z,123.75
2019-06-20T06:02:34.704Z,123.75
2019-06-20T06:03:34.694Z,123.75
2019-06-20T06:04:34.705Z,123.75
2019-06-20T06:05:34.692Z,123.75
2019-06-20T06:06:34.655Z,123.75
2019-06-20T06:07:34.656Z,123.75
2019-06-20T06:08:34.659Z,123.75
2019-06-20T06:09:34.684Z,123.75
2019-06-20T06:10:34.646Z,123.75
2019-06-20T06:11:34.614Z,123.75
2019-06-20T06:12:34.593Z,123.75
2019-06-20T06:13:34.584Z,123.75
2019-06-20T06:14:34.571Z,123.75
2019-06-20T06:15:34.572Z,129.38
2019-06-20T06:16:34.575Z,129.38
2019-06-20T06:17:34.561Z,129.38
2019-06-20T06:18:34.533Z,129.38
2019-06-20T06:19:34.587Z,129.38
2019-06-20T06:20:34.533Z,129.38
2019-06-20T06:21:34.505Z,129.38
2019-06-20T06:22:34.538Z,129.38
2019-06-20T06:23:34.516Z,129.38
2019-06-20T06:24:34.482Z,129.38
2019-06-20T06:25:34.495Z,129.38
2019-06-20T06:26:34.472Z,129.38
2019-06-20T06:27:34.439Z,129.38
2019-06-20T06:28:34.450Z,129.38
2019-06-20T06:29:44.648Z,129.38
2019-06-20T06:30:34.424Z,129.38
2019-06-20T06:31:34.422Z,135.00
2019-06-20T06:32:40.111Z,135.00
2019-06-20T06:33:35.376Z,129.38
2019-06-20T06:34:34.374Z,135.00
2019-06-20T06:35:34.377Z,135.00
2019-06-20T06:36:34.386Z,135.00
2019-06-20T06:37:34.357Z,135.00
2019-06-20T06:38:34.324Z,135.00
2019-06-20T06:39:34.312Z,135.00
2019-06-20T06:40:34.306Z,135.00
2019-06-20T06:41:34.297Z,135.00
2019-06-20T06:42:34.304Z,135.00
2019-06-20T06:43:34.274Z,135.00
2019-06-20T06:44:34.303Z,135.00
2019-06-20T06:45:34.255Z,135.00
2019-06-20T06:46:44.791Z,135.00
2019-06-20T06:47:35.284Z,140.62
2019-06-20T06:48:34.255Z,140.62
2019-06-20T06:49:34.229Z,140.62
2019-06-20T06:50:34.205Z,140.62
2019-06-20T06:51:34.207Z,140.62
2019-06-20T06:52:34.184Z,140.62
2019-06-20T06:53:34.253Z,140.62
2019-06-20T06:54:34.154Z,140.62
2019-06-20T06:55:34.157Z,140.62
2019-06-20T06:56:34.135Z,140.62
2019-06-20T06:57:34.124Z,146.25
2019-06-20T06:58:34.126Z,140.62
2019-06-20T06:59:34.121Z,146.25
2019-06-20T07:00:44.343Z,140.62
2019-06-20T07:01:34.090Z,140.62
2019-06-20T07:02:34.069Z,140.62
2019-06-20T07:03:34.070Z,146.25
2019-06-20T07:04:34.060Z,151.88
2019-06-20T07:05:34.040Z,140.62
2019-06-20T07:06:34.029Z,146.25
2019-06-20T07:07:34.020Z,146.25
2019-06-20T07:08:34.009Z,146.25
2019-06-20T07:09:35.497Z,146.25
2019-06-20T07:10:33.994Z,146.25
2019-06-20T07:11:33.981Z,146.25
2019-06-20T07:12:34.002Z,146.25
2019-06-20T07:13:33.950Z,146.25
2019-06-20T07:14:33.953Z,146.25
2019-06-20T07:15:34.001Z,146.25
2019-06-20T07:16:33.929Z,146.25
2019-06-20T07:17:33.919Z,146.25
2019-06-20T07:18:33.910Z,146.25
2019-06-20T07:19:33.900Z,146.25
2019-06-20T07:20:33.902Z,146.25
2019-06-20T07:21:33.872Z,146.25
2019-06-20T07:22:33.882Z,146.25
2019-06-20T07:23:33.847Z,151.88
2019-06-20T07:24:33.866Z,151.88
2019-06-20T07:25:33.853Z,151.88
2019-06-20T07:26:33.848Z,151.88
2019-06-20T07:27:33.878Z,151.88
2019-06-20T07:28:33.820Z,151.88
2019-06-20T07:29:33.870Z,151.88
2019-06-20T07:30:33.841Z,151.88
2019-06-20T07:31:44.846Z,151.88
2019-06-20T07:32:33.752Z,151.88
2019-06-20T07:33:33.741Z,151.88
2019-06-20T07:34:33.741Z,151.88
2019-06-20T07:35:33.713Z,151.88
2019-06-20T07:36:33.720Z,151.88
2019-06-20T07:37:33.712Z,151.88
2019-06-20T07:38:33.755Z,151.88
2019-06-20T07:39:33.691Z,151.88
2019-06-20T07:40:33.690Z,157.50
2019-06-20T07:41:33.711Z,157.50
2019-06-20T07:42:33.655Z,157.50
2019-06-20T07:43:33.652Z,157.50
2019-06-20T07:44:33.659Z,157.50
2019-06-20T07:45:33.624Z,157.50
2019-06-20T07:46:33.612Z,157.50
2019-06-20T07:47:33.641Z,157.50
2019-06-20T07:48:33.616Z,157.50
2019-06-20T07:49:33.573Z,157.50
2019-06-20T07:50:33.590Z,157.50
2019-06-20T07:51:33.562Z,157.50
2019-06-20T07:52:33.564Z,157.50
2019-06-20T07:53:33.952Z,157.50
2019-06-20T07:54:33.542Z,157.50
2019-06-20T07:55:33.512Z,163.12
2019-06-20T07:56:33.502Z,163.12
2019-06-20T07:57:33.513Z,163.12
2019-06-20T07:58:33.473Z,163.12
2019-06-20T07:59:33.486Z,163.12
2019-06-20T08:00:33.481Z,163.12
2019-06-20T08:01:33.454Z,168.75
2019-06-20T08:02:43.814Z,163.12
2019-06-20T08:03:33.490Z,163.12
2019-06-20T08:04:33.449Z,163.12
2019-06-20T08:05:33.417Z,163.12
2019-06-20T08:06:33.395Z,163.12
2019-06-20T08:07:33.405Z,163.12
2019-06-20T08:08:33.367Z,163.12
2019-06-20T08:09:44.363Z,163.12
2019-06-20T08:10:34.419Z,163.12
2019-06-20T08:11:33.346Z,163.12
2019-06-20T08:12:33.341Z,163.12
2019-06-20T08:13:33.317Z,163.12
2019-06-20T08:14:33.308Z,163.12
2019-06-20T08:15:33.313Z,163.12
2019-06-20T08:16:33.309Z,163.12
2019-06-20T08:17:35.621Z,163.12
2019-06-20T08:18:33.269Z,163.12
2019-06-20T08:19:33.286Z,163.12
2019-06-20T08:20:33.276Z,163.12
2019-06-20T08:21:33.318Z,163.12
2019-06-20T08:22:33.255Z,163.12
2019-06-20T08:23:33.231Z,163.12
2019-06-20T08:24:33.216Z,163.12
2019-06-20T08:25:33.199Z,163.12
2019-06-20T08:26:33.183Z,163.12
2019-06-20T08:27:33.234Z,163.12
2019-06-20T08:28:33.170Z,168.75
2019-06-20T08:29:33.187Z,168.75
2019-06-20T08:30:33.161Z,168.75
2019-06-20T08:31:33.148Z,168.75
2019-06-20T08:32:33.133Z,168.75
2019-06-20T08:33:43.682Z,168.75
2019-06-20T08:34:33.112Z,168.75
2019-06-20T08:35:33.093Z,168.75
2019-06-20T08:36:33.144Z,168.75
2019-06-20T08:37:33.082Z,168.75
2019-06-20T08:38:33.091Z,168.75
2019-06-20T08:39:33.061Z,174.38
2019-06-20T08:40:33.040Z,168.75
2019-06-20T08:41:33.060Z,174.38
2019-06-20T08:42:33.025Z,168.75
2019-06-20T08:43:33.025Z,174.38
2019-06-20T08:44:33.016Z,174.38
2019-06-20T08:45:33.022Z,174.38
2019-06-20T08:46:32.995Z,174.38
2019-06-20T08:47:32.964Z,174.38
2019-06-20T08:48:32.975Z,174.38
2019-06-20T08:49:32.966Z,174.38
2019-06-20T08:50:32.954Z,174.38
2019-06-20T08:51:32.933Z,174.38
2019-06-20T08:52:32.915Z,180.00
2019-06-20T08:53:32.903Z,180.00
2019-06-20T08:54:32.912Z,180.00
2019-06-20T08:55:32.926Z,180.00
2019-06-20T08:56:32.883Z,180.00
2019-06-20T08:57:32.890Z,180.00
2019-06-20T08:58:32.873Z,180.00
2019-06-20T08:59:32.855Z,180.00
2019-06-20T09:00:32.845Z,185.62
2019-06-20T09:01:32.834Z,185.62
2019-06-20T09:02:32.832Z,191.25
2019-06-20T09:03:32.815Z,191.25
2019-06-20T09:04:44.413Z,191.25
2019-06-20T09:05:32.813Z,191.25
2019-06-20T09:06:32.785Z,191.25
2019-06-20T09:07:32.778Z,191.25
2019-06-20T09:08:32.766Z,191.25
2019-06-20T09:09:32.745Z,191.25
2019-06-20T09:10:32.784Z,191.25
2019-06-20T09:11:32.730Z,191.25
2019-06-20T09:12:32.728Z,191.25
2019-06-20T09:13:32.746Z,196.88
2019-06-20T09:14:32.695Z,191.25
2019-06-20T09:15:32.685Z,191.25
2019-06-20T09:16:32.691Z,191.25
2019-06-20T09:17:32.662Z,191.25
2019-06-20T09:18:32.655Z,196.88
2019-06-20T09:19:32.651Z,191.25
2019-06-20T09:20:32.630Z,196.88
2019-06-20T09:21:32.644Z,185.62
2019-06-20T09:22:32.613Z,90.00
2019-06-20T09:23:35.540Z,180.00
2019-06-20T09:24:32.582Z,196.88
2019-06-20T09:25:32.598Z,95.62
2019-06-20T09:26:32.573Z,196.88
2019-06-20T09:27:32.552Z,208.12
2019-06-20T09:28:32.543Z,213.75
2019-06-20T09:29:41.409Z,208.12
2019-06-20T09:30:33.526Z,208.12
2019-06-20T09:31:32.555Z,213.75
2019-06-20T09:32:32.502Z,213.75
2019-06-20T09:33:32.486Z,213.75
2019-06-20T09:34:32.493Z,213.75
2019-06-20T09:35:42.465Z,213.75
2019-06-20T09:36:32.471Z,196.88
2019-06-20T09:37:32.469Z,219.38
2019-06-20T09:38:32.449Z,106.88
2019-06-20T09:39:32.437Z,168.75
2019-06-20T09:40:32.420Z,95.62
2019-06-20T09:41:32.424Z,95.62
2019-06-20T09:42:32.959Z,90.00
2019-06-20T09:43:32.394Z,90.00
2019-06-20T09:44:32.379Z,101.25
2019-06-20T09:45:32.364Z,208.12
2019-06-20T09:46:32.359Z,230.62
2019-06-20T09:47:32.354Z,230.62
2019-06-20T09:48:32.350Z,230.62
2019-06-20T09:49:32.331Z,236.25
2019-06-20T09:50:32.319Z,236.25
2019-06-20T09:51:32.320Z,236.25
2019-06-20T09:52:32.305Z,236.25
2019-06-20T09:53:32.321Z,236.25
2019-06-20T09:54:32.267Z,236.25
2019-06-20T09:55:32.270Z,213.75
2019-06-20T09:56:32.252Z,236.25
2019-06-20T09:57:32.243Z,230.62
2019-06-20T09:58:32.235Z,236.25
2019-06-20T09:59:32.225Z,236.25
2019-06-20T10:00:32.213Z,236.25
2019-06-20T10:01:32.211Z,236.25
2019-06-20T10:02:32.199Z,225.00
2019-06-20T10:03:32.316Z,163.12
2019-06-20T10:04:32.169Z,236.25
2019-06-20T10:05:32.208Z,241.88
2019-06-20T10:06:42.280Z,241.88
2019-06-20T10:07:32.132Z,241.88
2019-06-20T10:08:32.111Z,241.88
2019-06-20T10:09:32.164Z,236.25
2019-06-20T10:10:32.101Z,236.25
2019-06-20T10:11:32.091Z,236.25
2019-06-20T10:12:32.094Z,230.62
2019-06-20T10:13:32.885Z,230.62
2019-06-20T10:14:32.061Z,225.00
2019-06-20T10:15:32.067Z,225.00
2019-06-20T10:16:44.993Z,225.00
2019-06-20T10:17:33.055Z,225.00
2019-06-20T10:18:32.034Z,225.00
2019-06-20T10:19:32.002Z,225.00
2019-06-20T10:20:32.013Z,225.00
2019-06-20T10:21:31.992Z,225.00
2019-06-20T10:22:31.985Z,225.00
2019-06-20T10:23:31.971Z,225.00
2019-06-20T10:24:31.972Z,225.00
2019-06-20T10:25:31.952Z,219.38
2019-06-20T10:26:31.952Z,219.38
2019-06-20T10:27:31.922Z,219.38
2019-06-20T10:28:31.941Z,225.00
2019-06-20T10:29:31.914Z,225.00
2019-06-20T10:30:31.900Z,225.00
2019-06-20T10:31:31.903Z,230.62
2019-06-20T10:32:31.906Z,230.62
2019-06-20T10:33:31.876Z,118.12
2019-06-20T10:34:31.864Z,191.25
2019-06-20T10:35:31.857Z,241.88
2019-06-20T10:36:31.844Z,247.50
2019-06-20T10:37:45.074Z,247.50
2019-06-20T10:38:31.810Z,247.50
2019-06-20T10:39:31.808Z,247.50
2019-06-20T10:40:31.795Z,112.50
2019-06-20T10:41:31.779Z,101.25
2019-06-20T10:42:31.820Z,101.25
2019-06-20T10:43:31.769Z,101.25
2019-06-20T10:44:31.752Z,95.62
2019-06-20T10:45:31.747Z,95.62
2019-06-20T10:46:31.752Z,95.62
2019-06-20T10:47:35.775Z,95.62
2019-06-20T10:48:31.726Z,123.75
2019-06-20T10:49:31.715Z,225.00
2019-06-20T10:50:31.698Z,247.50
2019-06-20T10:51:31.683Z,101.25
2019-06-20T10:52:31.673Z,101.25
2019-06-20T10:53:31.661Z,140.62
2019-06-20T10:54:31.652Z,208.12
2019-06-20T10:55:31.653Z,202.50
2019-06-20T10:56:31.636Z,247.50
2019-06-20T10:57:31.624Z,247.50
2019-06-20T10:58:31.626Z,247.50
2019-06-20T10:59:31.601Z,219.38
2019-06-20T11:00:32.016Z,253.12
2019-06-20T11:01:31.573Z,247.50
2019-06-20T11:02:31.565Z,247.50
2019-06-20T11:03:31.575Z,247.50
2019-06-20T11:04:31.545Z,253.12
2019-06-20T11:05:31.521Z,253.12
2019-06-20T11:06:31.522Z,247.50
2019-06-20T11:07:31.534Z,247.50
2019-06-20T11:08:43.270Z,247.50
2019-06-20T11:09:31.500Z,241.88
2019-06-20T11:10:31.491Z,247.50
2019-06-20T11:11:31.508Z,247.50
2019-06-20T11:12:42.845Z,253.12
2019-06-20T11:13:32.447Z,253.12
2019-06-20T11:14:31.459Z,247.50
2019-06-20T11:15:31.453Z,247.50
2019-06-20T11:16:31.430Z,247.50
2019-06-20T11:17:31.410Z,219.38
2019-06-20T11:18:31.442Z,112.50
2019-06-20T11:19:31.402Z,118.12
2019-06-20T11:20:31.370Z,247.50
2019-06-20T11:21:31.360Z,253.12
2019-06-20T11:22:31.368Z,258.75
2019-06-20T11:23:31.363Z,258.75
2019-06-20T11:24:31.378Z,264.38
2019-06-20T11:25:31.319Z,264.38
2019-06-20T11:26:31.314Z,264.38
2019-06-20T11:27:31.297Z,270.00
2019-06-20T11:28:31.300Z,270.00
2019-06-20T11:29:31.293Z,236.25
2019-06-20T11:30:44.953Z,135.00
2019-06-20T11:31:32.269Z,123.75
2019-06-20T11:32:31.250Z,230.62
2019-06-20T11:33:31.251Z,286.88
2019-06-20T11:34:31.251Z,281.25
2019-06-20T11:35:31.220Z,275.62
2019-06-20T11:36:31.270Z,281.25
2019-06-20T11:37:31.200Z,112.50
2019-06-20T11:38:31.197Z,112.50
2019-06-20T11:39:43.249Z,123.75
2019-06-20T11:40:31.167Z,270.00
2019-06-20T11:41:31.157Z,275.62
2019-06-20T11:42:31.172Z,281.25
2019-06-20T11:43:31.140Z,135.00
2019-06-20T11:44:31.126Z,118.12
2019-06-20T11:45:31.138Z,118.12
2019-06-20T11:46:31.122Z,118.12
2019-06-20T11:47:31.099Z,123.75
2019-06-20T11:48:31.099Z,112.50
2019-06-20T11:49:31.091Z,118.12
2019-06-20T11:50:31.080Z,118.12
2019-06-20T11:51:31.049Z,118.12
2019-06-20T11:52:35.366Z,140.62
2019-06-20T11:53:33.695Z,281.25
2019-06-20T11:54:31.865Z,281.25
2019-06-20T11:55:31.017Z,275.62
2019-06-20T11:56:31.017Z,275.62
2019-06-20T11:57:31.050Z,281.25
2019-06-20T11:58:30.988Z,275.62
2019-06-20T11:59:30.969Z,275.62
2019-06-20T12:00:30.969Z,129.38
2019-06-20T12:01:33.188Z,281.25
2019-06-20T12:02:30.950Z,168.75
2019-06-20T12:03:30.942Z,202.50
2019-06-20T12:04:30.931Z,286.88
2019-06-20T12:05:30.924Z,286.88
2019-06-20T12:06:30.913Z,281.25
2019-06-20T12:07:30.918Z,281.25
2019-06-20T12:08:30.950Z,275.62
2019-06-20T12:09:30.879Z,270.00
2019-06-20T12:10:41.339Z,275.62
2019-06-20T12:11:30.860Z,275.62
2019-06-20T12:12:30.878Z,270.00
2019-06-20T12:13:30.829Z,264.38
2019-06-20T12:14:30.899Z,140.62
2019-06-20T12:15:30.834Z,118.12
2019-06-20T12:16:30.812Z,123.75
2019-06-20T12:17:30.794Z,112.50
2019-06-20T12:18:30.803Z,118.12
2019-06-20T12:19:30.794Z,123.75
2019-06-20T12:20:30.762Z,241.88
2019-06-20T12:21:30.753Z,185.62
2019-06-20T12:22:30.740Z,270.00
2019-06-20T12:23:30.730Z,264.38
2019-06-20T12:24:30.867Z,264.38
2019-06-20T12:25:30.738Z,264.38
2019-06-20T12:26:30.700Z,253.12
2019-06-20T12:27:30.692Z,247.50
2019-06-20T12:28:30.685Z,135.00
2019-06-20T12:29:30.673Z,129.38
2019-06-20T12:30:30.719Z,258.75
2019-06-20T12:31:30.641Z,118.12
2019-06-20T12:32:30.657Z,118.12
2019-06-20T12:33:30.646Z,140.62
2019-06-20T12:34:30.633Z,196.88
2019-06-20T12:35:30.623Z,264.38
2019-06-20T12:36:30.615Z,258.75
2019-06-20T12:37:30.607Z,258.75
2019-06-20T12:38:30.572Z,258.75
2019-06-20T12:39:30.572Z,258.75